Stations météo

réclame
Mon MeteoGroup
K13 Alpha, Pays-Bas (6252): Température de l'air & dewpoint: 11.02.2019 13:00:00 - 17.02.2019 13:00:00 (CET)K13 Alpha, Pays-Bas (6252): water temperature: 11.02.2019 13:00:00 - 17.02.2019 13:00:00 (CET)K13 Alpha, Pays-Bas (6252): Vitesse du vent & gusts: 11.02.2019 13:00:00 - 17.02.2019 13:00:00 (CET)K13 Alpha, Pays-Bas (6252): Direction du vent: 11.02.2019 13:00:00 - 17.02.2019 13:00:00 (CET)K13 Alpha, Pays-Bas (6252): reduced air pressure: 11.02.2019 13:00:00 - 17.02.2019 13:00:00 (CET)
Date & Time tt [°C] td [°C] tw [°C] ff [km/h] ff [knt] fx [km/h] fx [knt] dd ppp [hPa]
17.02.2019 13:00:00 7,9 5,3 6,4 42 23 40 21 S 1016,4
17.02.2019 12:00:00 7,8 5,4 6,4 41 22 40 21 S 1017,2
17.02.2019 11:00:00 7,7 5,6 6,4 39 21 40 21 S 1017,3
17.02.2019 10:00:00 7,5 5,8 6,4 37 20 36 19 S 1017,6
17.02.2019 09:00:00 7,7 5,8 6,4 37 20 36 19 S 1018,0
17.02.2019 08:00:00 7,6 5,9 6,4 37 20 36 19 S 1018,1
17.02.2019 07:00:00 7,7 6,2 6,4 39 21 36 19 S 1018,1
17.02.2019 06:00:00 7,6 6,4 6,5 39 21 36 19 S 1018,7
17.02.2019 05:00:00 7,8 7,1 6,5 39 21 36 19 S 1019,3
17.02.2019 04:00:00 7,8 7,4 6,5 37 20 36 19 SSW 1020,0
17.02.2019 03:00:00 7,9 7,5 6,4 31 17 32 18 SW 1020,9
17.02.2019 02:00:00 8,1 7,5 6,4 35 19 36 19 SW 1021,5
17.02.2019 01:00:00 8,6 7,4 6,4 39 21 36 19 SW 1021,7
17.02.2019 00:00:00 8,3 7,4 6,4 39 21 40 21 SW 1022,1
16.02.2019 23:00:00 8,4 7,5 6,4 39 21 40 21 SW 1022,3
16.02.2019 22:00:00 8,3 7,4 6,4 42 23 40 21 SW 1022,5
16.02.2019 21:00:00 8,2 7,4 6,4 37 20 36 19 SW 1022,4
16.02.2019 20:00:00 8,1 7,3 6,4 42 23 40 21 SW 1022,4
16.02.2019 19:00:00 8,0 7,3 6,4 41 22 40 21 SW 1022,2
16.02.2019 18:00:00 7,9 7,1 6,4 39 21 40 21 SW 1022,1
16.02.2019 17:00:00 8,1 7,1 6,5 39 21 40 21 SW 1022,1
16.02.2019 16:00:00 8,0 6,9 6,4 35 19 36 19 SW 1022,3
16.02.2019 15:00:00 7,8 6,6 6,4 41 22 40 21 SW 1022,4
16.02.2019 14:00:00 7,8 6,3 6,4 48 26 47 25 SW 1022,6
16.02.2019 13:00:00 7,8 6,1 6,4 42 23 43 23 SW 1022,7
16.02.2019 12:00:00 7,6 6,0 6,4 42 23 43 23 SW 1022,7
16.02.2019 11:00:00 7,8 6,0 6,4 42 23 40 21 SW 1022,2
16.02.2019 10:00:00 8,0 5,8 6,4 39 21 40 21 SW 1022,2
16.02.2019 09:00:00 7,7 5,7 6,4 39 21 47 25 SW 1022,4
16.02.2019 08:00:00 7,8 5,6 6,4 44 24 43 23 SW 1021,7
16.02.2019 07:00:00 7,9 5,4 6,4 42 23 43 23 SW 1021,5
16.02.2019 06:00:00 7,9 5,7 6,4 44 24 43 23 SW 1021,4
16.02.2019 05:00:00 8,0 5,7 6,4 44 24 43 23 SW 1021,3
16.02.2019 04:00:00 8,0 5,6 6,4 41 22 40 21 SSW 1021,6
16.02.2019 03:00:00 7,9 4,8 6,4 41 22 40 21 SW 1022,2
16.02.2019 02:00:00 8,0 5,0 6,4 42 23 43 23 SW 1022,6
16.02.2019 01:00:00 8,1 5,5 6,4 46 25 43 23 SSW 1022,8
16.02.2019 00:00:00 8,0 5,6 6,4 41 22 40 21 SSW 1023,3
15.02.2019 23:00:00 7,9 5,3 - 41 22 40 21 SSW 1023,8
15.02.2019 22:00:00 7,8 5,3 6,4 42 23 43 23 SSW 1024,2
15.02.2019 21:00:00 7,7 4,6 6,4 41 22 40 21 SSW 1024,5
15.02.2019 20:00:00 7,2 5,5 6,4 37 20 32 18 S 1025,2
15.02.2019 19:00:00 7,1 5,6 6,4 34 18 32 18 S 1025,5
15.02.2019 18:00:00 7,3 5,6 6,4 31 17 32 18 S 1025,7
15.02.2019 17:00:00 7,5 5,7 6,5 31 17 32 18 SSW 1025,9
15.02.2019 16:00:00 7,8 5,5 6,5 31 17 29 16 SSW 1026,5
15.02.2019 15:00:00 7,8 5,4 6,5 29 16 29 16 SSW 1027,2
15.02.2019 14:00:00 7,8 5,3 6,5 34 18 32 18 SSW 1027,9
15.02.2019 13:00:00 7,7 5,2 6,4 34 18 29 16 S 1028,2
15.02.2019 12:00:00 7,6 5,0 6,4 31 17 32 18 S 1028,7
15.02.2019 11:00:00 7,4 5,0 6,4 35 19 32 18 S 1029,1
15.02.2019 10:00:00 7,6 4,8 6,4 35 19 32 18 S 1029,4
15.02.2019 09:00:00 7,5 5,0 6,3 35 19 32 18 S 1029,6
15.02.2019 08:00:00 7,3 5,2 6,4 34 18 32 18 S 1029,6
15.02.2019 07:00:00 7,4 5,0 6,4 26 14 25 14 S 1029,7
15.02.2019 06:00:00 7,6 4,7 6,4 29 16 29 16 SSW 1029,9
15.02.2019 05:00:00 7,8 4,5 6,4 34 18 29 16 S 1030,0
15.02.2019 04:00:00 7,7 4,9 6,4 31 17 32 18 S 1030,5
15.02.2019 03:00:00 7,9 4,7 6,4 35 19 32 18 SSW 1030,9
15.02.2019 02:00:00 8,0 4,8 6,4 37 20 36 19 S 1031,4
15.02.2019 01:00:00 8,0 4,9 6,4 37 20 36 19 S 1031,8
15.02.2019 00:00:00 7,8 5,0 6,4 37 20 36 19 S 1032,0
14.02.2019 23:00:00 7,4 5,4 6,4 35 19 32 18 S 1032,1
14.02.2019 22:00:00 7,2 5,0 6,4 29 16 29 16 S 1032,0
14.02.2019 21:00:00 6,9 5,3 6,4 28 15 25 14 S 1032,3
14.02.2019 20:00:00 6,9 5,2 6,4 26 14 29 16 S 1032,5
14.02.2019 19:00:00 6,8 5,2 6,4 26 14 25 14 S 1032,6
14.02.2019 18:00:00 6,8 5,9 6,4 26 14 25 14 S 1032,6
14.02.2019 17:00:00 7,2 6,0 6,5 22 12 22 12 SSW 1032,7
14.02.2019 16:00:00 7,5 6,4 6,5 24 13 25 14 SSW 1033,0
14.02.2019 15:00:00 7,6 6,4 6,4 26 14 29 16 SSW 1033,2
14.02.2019 14:00:00 7,5 6,0 6,4 29 16 29 16 SSW 1033,4
14.02.2019 13:00:00 7,5 5,5 6,4 37 20 32 18 SW 1034,0
14.02.2019 12:00:00 7,4 5,3 6,4 35 19 32 18 SW 1034,1
14.02.2019 11:00:00 7,1 4,8 6,4 28 15 29 16 SW 1034,1
14.02.2019 10:00:00 7,1 4,4 6,4 26 14 29 16 SW 1033,4
14.02.2019 09:00:00 6,7 4,1 6,4 29 16 32 18 SW 1033,0
14.02.2019 08:00:00 6,6 4,0 6,4 35 19 36 19 WSW 1032,7
14.02.2019 07:00:00 6,7 4,2 6,4 31 17 36 19 SW 1032,5
14.02.2019 06:00:00 6,8 4,4 6,4 35 19 36 19 SW 1032,3
14.02.2019 05:00:00 6,9 4,7 6,4 37 20 40 21 SW 1032,3
14.02.2019 04:00:00 7,1 4,6 6,4 41 22 43 23 SW 1032,1
14.02.2019 03:00:00 7,1 4,9 6,4 42 23 43 23 SW 1031,7
14.02.2019 02:00:00 7,2 5,1 6,4 42 23 43 23 SW 1031,9
14.02.2019 01:00:00 7,3 5,7 6,4 41 22 43 23 SW 1032,0
14.02.2019 00:00:00 7,3 6,0 6,4 44 24 43 23 SSW 1032,0
13.02.2019 23:00:00 7,3 6,2 6,4 41 22 40 21 SW 1032,1
13.02.2019 22:00:00 7,2 6,2 6,4 37 20 36 19 SW 1032,3
13.02.2019 21:00:00 7,3 6,3 6,4 39 21 40 21 SW 1032,1
13.02.2019 20:00:00 7,2 6,2 6,4 41 22 40 21 SSW 1031,7
13.02.2019 19:00:00 7,3 6,1 6,4 42 23 43 23 SSW 1031,8
13.02.2019 18:00:00 7,1 5,9 - 44 24 43 23 SW 1031,4
13.02.2019 17:00:00 7,1 5,8 6,4 46 25 43 23 SW 1031,1
13.02.2019 16:00:00 7,1 5,7 6,4 41 22 40 21 SW 1031,7
13.02.2019 15:00:00 7,1 5,9 6,4 41 22 40 21 SW 1032,0
13.02.2019 14:00:00 7,0 5,9 6,4 42 23 40 21 SW 1032,0
13.02.2019 13:00:00 7,1 5,8 6,4 39 21 40 21 SW 1032,1
13.02.2019 12:00:00 7,1 5,9 6,4 39 21 40 21 SW 1032,8
13.02.2019 11:00:00 7,0 5,9 6,4 42 23 43 23 SW 1032,7
13.02.2019 10:00:00 7,2 5,9 - 42 23 43 23 WSW 1032,2
13.02.2019 09:00:00 7,0 6,0 - 41 22 40 21 SW 1031,8
13.02.2019 08:00:00 7,0 5,9 - 42 23 40 21 WSW 1031,5
13.02.2019 07:00:00 7,0 5,8 - 42 23 43 23 WSW 1031,2
13.02.2019 06:00:00 7,1 5,8 - 41 22 40 21 WSW 1031,4
13.02.2019 05:00:00 7,1 5,7 - 41 22 43 23 WSW 1031,3
13.02.2019 04:00:00 7,3 5,7 - 42 23 43 23 WSW 1031,2
13.02.2019 03:00:00 7,3 5,6 - 42 23 43 23 WSW 1031,2
13.02.2019 02:00:00 7,5 5,6 - 44 24 43 23 WSW 1031,2
13.02.2019 01:00:00 7,4 5,6 - 41 22 43 23 WSW 1031,4
13.02.2019 00:00:00 7,5 5,6 - 42 23 43 23 WSW 1031,4
12.02.2019 23:00:00 7,4 5,6 - 42 23 47 25 WSW 1031,2
12.02.2019 22:00:00 7,7 5,5 - 46 25 47 25 W 1031,1
12.02.2019 21:00:00 7,4 5,5 - 39 21 43 23 WSW 1030,9
12.02.2019 20:00:00 7,3 5,4 - 42 23 43 23 SW 1030,3
12.02.2019 19:00:00 7,0 5,4 - 41 22 40 21 SW 1030,4
12.02.2019 18:00:00 6,8 5,1 - 39 21 40 21 SW 1030,5
12.02.2019 17:00:00 6,7 4,9 - 34 18 32 18 SW 1030,5
12.02.2019 16:00:00 6,4 4,6 - 31 17 32 18 WSW 1030,8
12.02.2019 15:00:00 6,3 4,1 - 34 18 32 18 WSW 1030,7
12.02.2019 14:00:00 6,1 3,9 - 34 18 32 18 WSW 1030,5
12.02.2019 13:00:00 6,2 4,1 - 31 17 32 18 WSW 1030,7
12.02.2019 12:00:00 6,2 3,8 - 31 17 32 18 WSW 1031,0
12.02.2019 11:00:00 6,2 3,9 - 31 17 32 18 WSW 1031,0
12.02.2019 10:00:00 6,3 3,9 - 34 18 36 19 WSW 1030,9
12.02.2019 09:00:00 6,1 3,8 - 34 18 32 18 WSW 1030,8
12.02.2019 08:00:00 6,0 4,0 - 29 16 29 16 WSW 1030,4
12.02.2019 07:00:00 5,9 4,0 - 28 15 32 18 WSW 1030,3
12.02.2019 06:00:00 6,0 4,0 - 31 17 32 18 WSW 1030,6
12.02.2019 05:00:00 6,0 3,9 - 29 16 29 16 WSW 1030,4
12.02.2019 04:00:00 6,1 3,1 - 22 12 25 14 WSW 1030,9
12.02.2019 03:00:00 6,0 3,3 - 26 14 25 14 W 1031,2
12.02.2019 02:00:00 6,1 3,7 - 24 13 25 14 W 1031,2
12.02.2019 01:00:00 6,1 4,3 - 22 12 22 12 W 1031,2
12.02.2019 00:00:00 6,0 3,9 - 24 13 22 12 WNW 1030,9
11.02.2019 23:00:00 6,1 3,2 - 22 12 25 14 WNW 1030,6
11.02.2019 22:00:00 6,2 2,3 - 26 14 25 14 WNW 1030,1
11.02.2019 21:00:00 6,2 2,3 - 24 13 25 14 WNW 1029,8
11.02.2019 20:00:00 6,4 1,2 - 28 15 29 16 NW 1029,1
11.02.2019 19:00:00 6,4 2,5 - 26 14 29 16 NW 1028,4
11.02.2019 18:00:00 6,5 2,5 - 24 13 25 14 NNW 1027,8
11.02.2019 17:00:00 6,7 2,4 - 28 15 32 18 NNW 1026,4
11.02.2019 16:00:00 6,9 2,9 - 29 16 32 18 NNW 1025,8
11.02.2019 15:00:00 6,2 1,1 - 28 15 36 19 NNW 1024,5
11.02.2019 14:00:00 6,7 1,2 - 34 18 36 19 N 1023,5
11.02.2019 13:00:00 6,8 2,3 - 29 16 40 21 N 1022,3

tt = Température de l'air
td = dewpoint
tw = water temperature
ff = Vitesse du vent
fx = gusts
dd = Direction du vent
ppp = reduced air pressure

stations d'obs. à proximité